createdAt,value
2023-03-06T00:00:21.944Z,34.03
2023-03-06T00:02:50.138Z,34.05
2023-03-06T00:05:18.346Z,34.10
2023-03-06T00:07:47.800Z,34.07
2023-03-06T00:10:17.857Z,34.00
2023-03-06T00:12:45.894Z,34.06
2023-03-06T00:15:14.783Z,34.03
2023-03-06T00:17:42.826Z,33.93
2023-03-06T00:20:12.107Z,33.99
2023-03-06T00:22:40.748Z,34.02
2023-03-06T00:25:14.637Z,33.97
2023-03-06T00:27:44.690Z,34.01
2023-03-06T00:30:14.669Z,33.84
2023-03-06T00:32:43.380Z,34.00
2023-03-06T00:35:11.889Z,33.97
2023-03-06T00:37:40.330Z,34.11
2023-03-06T00:40:14.049Z,34.01
2023-03-06T00:42:42.284Z,34.17
2023-03-06T00:45:11.357Z,34.12
2023-03-06T00:47:41.498Z,34.09
2023-03-06T00:50:11.513Z,34.16
2023-03-06T00:52:41.873Z,34.00
2023-03-06T00:55:12.636Z,34.03
2023-03-06T00:57:40.710Z,33.91
2023-03-06T01:00:11.845Z,34.01
2023-03-06T01:02:40.373Z,33.92
2023-03-06T01:05:10.137Z,33.90
2023-03-06T01:07:38.401Z,34.11
2023-03-06T01:10:08.909Z,33.88
2023-03-06T01:12:38.434Z,34.06
2023-03-06T01:15:08.753Z,33.99
2023-03-06T01:17:36.930Z,33.87
2023-03-06T01:20:06.513Z,33.88
2023-03-06T01:22:34.797Z,34.03
2023-03-06T01:25:02.878Z,34.05
2023-03-06T01:27:31.110Z,34.06
2023-03-06T01:30:00.672Z,34.06
2023-03-06T01:32:28.883Z,34.10
2023-03-06T01:34:57.114Z,34.01
2023-03-06T01:37:25.227Z,33.98
2023-03-06T01:39:53.434Z,33.90
2023-03-06T01:42:21.537Z,34.15
2023-03-06T01:45:49.700Z,34.04
2023-03-06T01:48:19.108Z,34.10
2023-03-06T01:50:47.294Z,34.15
2023-03-06T01:53:16.613Z,34.28
2023-03-06T01:55:44.846Z,34.11
2023-03-06T01:58:17.544Z,34.21
2023-03-06T02:00:47.185Z,34.21
2023-03-06T02:03:19.030Z,34.13
2023-03-06T02:05:47.622Z,34.14
2023-03-06T02:08:20.608Z,34.07
2023-03-06T02:10:59.500Z,34.02
2023-03-06T02:13:27.844Z,34.03
2023-03-06T02:15:57.695Z,34.04
2023-03-06T02:18:26.406Z,34.04
2023-03-06T02:20:58.424Z,34.29
2023-03-06T02:23:33.249Z,34.33
2023-03-06T02:26:03.422Z,34.32
2023-03-06T02:28:31.647Z,34.29
2023-03-06T02:30:59.904Z,34.37
2023-03-06T02:33:30.435Z,34.41
2023-03-06T02:36:01.198Z,34.34
2023-03-06T02:38:32.651Z,34.26
2023-03-06T02:41:04.800Z,34.36
2023-03-06T02:43:35.305Z,34.41
2023-03-06T02:46:03.543Z,34.37
2023-03-06T02:48:31.721Z,34.41
2023-03-06T02:51:00.302Z,34.36
2023-03-06T02:53:28.607Z,34.40
2023-03-06T02:55:56.774Z,34.24
2023-03-06T02:58:26.252Z,34.44
2023-03-06T03:00:54.657Z,34.25
2023-03-06T03:03:22.896Z,34.42
2023-03-06T03:05:51.120Z,34.34
2023-03-06T03:08:19.121Z,34.20
2023-03-06T03:10:47.389Z,34.29
2023-03-06T03:13:15.590Z,34.32
2023-03-06T03:15:45.610Z,34.33
2023-03-06T03:18:13.901Z,34.33
2023-03-06T03:20:43.799Z,34.59
2023-03-06T03:23:12.279Z,34.38
2023-03-06T03:25:40.364Z,34.40
2023-03-06T03:28:08.498Z,34.52
2023-03-06T03:30:36.613Z,34.34
2023-03-06T03:33:06.193Z,34.57
2023-03-06T03:35:34.495Z,34.58
2023-03-06T03:38:03.373Z,34.65
2023-03-06T03:40:31.474Z,34.44
2023-03-06T03:42:59.791Z,34.62
2023-03-06T03:45:27.893Z,34.48
2023-03-06T03:47:55.915Z,34.63
2023-03-06T03:50:25.432Z,34.63
2023-03-06T03:52:53.536Z,34.56
2023-03-06T03:55:21.608Z,34.66
2023-03-06T03:57:49.780Z,34.84
2023-03-06T04:00:19.981Z,34.61
2023-03-06T04:02:48.261Z,34.83
2023-03-06T04:05:17.169Z,34.73
2023-03-06T04:07:46.562Z,34.61
2023-03-06T04:10:14.711Z,34.92
2023-03-06T04:12:42.795Z,34.71
2023-03-06T04:15:11.539Z,34.67
2023-03-06T04:17:39.623Z,34.88
2023-03-06T04:20:08.879Z,34.68
2023-03-06T04:22:37.052Z,34.66
2023-03-06T04:25:07.553Z,34.88
2023-03-06T04:27:35.713Z,34.82
2023-03-06T04:30:03.816Z,34.90
2023-03-06T04:32:32.857Z,34.95
2023-03-06T04:35:01.185Z,34.92
2023-03-06T04:37:29.662Z,34.82
2023-03-06T04:39:58.645Z,34.98
2023-03-06T04:42:28.341Z,35.09
2023-03-06T04:44:56.420Z,35.13
2023-03-06T04:47:24.520Z,35.23
2023-03-06T04:49:52.591Z,35.17
2023-03-06T04:52:20.921Z,35.08
2023-03-06T04:54:48.965Z,34.93
2023-03-06T04:57:17.030Z,35.00
2023-03-06T04:59:46.485Z,35.00
2023-03-06T05:02:14.803Z,34.93
2023-03-06T05:04:42.820Z,34.66
2023-03-06T05:07:11.441Z,34.61
2023-03-06T05:09:39.493Z,34.67
2023-03-06T05:12:08.077Z,34.47
2023-03-06T05:14:36.161Z,34.51
2023-03-06T05:17:05.664Z,34.34
2023-03-06T05:19:33.744Z,34.27
2023-03-06T05:22:02.571Z,34.33
2023-03-06T05:24:30.584Z,34.15
2023-03-06T05:26:58.585Z,34.22
2023-03-06T05:29:26.776Z,34.03
2023-03-06T05:31:55.584Z,34.02
2023-03-06T05:34:25.259Z,34.03
2023-03-06T05:36:53.362Z,33.88
2023-03-06T05:39:21.451Z,33.81
2023-03-06T05:41:49.882Z,33.83
2023-03-06T05:44:17.977Z,33.79
2023-03-06T05:46:46.075Z,33.89
2023-03-06T05:49:14.162Z,33.89
2023-03-06T05:51:44.004Z,34.06
2023-03-06T05:54:12.040Z,33.97
2023-03-06T05:56:42.697Z,34.06
2023-03-06T05:59:11.334Z,34.09
2023-03-06T06:01:39.647Z,34.08
2023-03-06T06:04:07.708Z,34.16
2023-03-06T06:06:35.824Z,34.11
2023-03-06T06:09:05.757Z,34.08
2023-03-06T06:11:33.896Z,34.15
2023-03-06T06:14:02.130Z,34.17
2023-03-06T06:16:30.274Z,34.22
2023-03-06T06:18:58.792Z,34.24
2023-03-06T06:21:26.844Z,34.20
2023-03-06T06:23:55.101Z,34.35
2023-03-06T06:26:24.574Z,34.33
2023-03-06T06:28:52.761Z,34.49
2023-03-06T06:31:20.861Z,34.56
2023-03-06T06:33:48.922Z,34.70
2023-03-06T06:36:18.671Z,34.62
2023-03-06T06:38:47.208Z,34.67
2023-03-06T06:41:42.372Z,34.31
2023-03-06T06:44:11.234Z,34.54
2023-03-06T06:49:27.901Z,34.46
2023-03-06T06:51:56.080Z,34.41
2023-03-06T06:54:24.391Z,34.29
2023-03-06T06:56:52.588Z,34.32
2023-03-06T06:59:23.715Z,34.37
2023-03-06T07:01:52.145Z,34.41
2023-03-06T07:04:20.785Z,34.43
2023-03-06T07:06:48.829Z,34.50
2023-03-06T07:09:17.501Z,34.40
2023-03-06T07:11:46.245Z,34.41
2023-03-06T07:14:14.618Z,34.62
2023-03-06T07:16:44.420Z,34.47
2023-03-06T07:19:12.616Z,34.54
2023-03-06T07:21:40.977Z,34.64
2023-03-06T07:24:09.827Z,34.84
2023-03-06T07:26:38.304Z,34.66
2023-03-06T07:29:06.698Z,34.64
2023-03-06T07:31:34.926Z,34.79
2023-03-06T07:34:06.765Z,34.69
2023-03-06T07:36:34.942Z,34.73
2023-03-06T07:39:03.121Z,34.83
2023-03-06T07:41:32.038Z,34.95
2023-03-06T07:44:00.267Z,34.85
2023-03-06T07:46:28.541Z,34.95
2023-03-06T07:48:56.896Z,35.02
2023-03-06T07:51:26.429Z,35.04
2023-03-06T07:53:54.557Z,34.94
2023-03-06T07:56:23.002Z,34.72
2023-03-06T07:58:51.474Z,34.87
2023-03-06T08:01:24.256Z,35.01
2023-03-06T08:03:53.243Z,35.03
2023-03-06T08:06:23.017Z,35.03
2023-03-06T08:08:53.720Z,34.91
2023-03-06T08:11:23.355Z,35.04
2023-03-06T08:13:52.832Z,35.11
2023-03-06T08:16:21.981Z,34.74
2023-03-06T08:18:50.262Z,35.24
2023-03-06T08:21:21.105Z,35.28
2023-03-06T08:23:49.681Z,35.29
2023-03-06T08:26:20.965Z,35.24
2023-03-06T08:28:49.441Z,35.24
2023-03-06T08:31:25.790Z,35.24
2023-03-06T08:33:54.591Z,35.37
2023-03-06T08:36:23.944Z,35.26
2023-03-06T08:38:52.890Z,35.31
2023-03-06T08:41:22.973Z,35.33
2023-03-06T08:43:51.157Z,35.51
2023-03-06T08:46:20.049Z,35.35
2023-03-06T08:48:48.770Z,35.33
2023-03-06T08:51:18.095Z,35.52
2023-03-06T08:53:48.403Z,35.36
2023-03-06T08:56:18.414Z,35.58
2023-03-06T08:58:49.150Z,35.49
2023-03-06T09:01:19.244Z,35.53
2023-03-06T09:03:47.648Z,35.50
2023-03-06T09:06:15.896Z,35.60
2023-03-06T09:08:44.729Z,35.59
2023-03-06T09:11:14.908Z,35.53
2023-03-06T09:13:43.830Z,35.65
2023-03-06T09:16:13.835Z,35.69
2023-03-06T09:18:42.035Z,35.75
2023-03-06T09:21:10.977Z,35.85
2023-03-06T09:23:40.838Z,35.73
2023-03-06T09:26:09.366Z,35.79
2023-03-06T09:28:39.271Z,35.60
2023-03-06T09:31:10.373Z,35.61
2023-03-06T09:33:40.229Z,35.79
2023-03-06T09:36:11.426Z,35.72
2023-03-06T09:38:39.592Z,35.62
2023-03-06T09:41:16.464Z,35.63
2023-03-06T09:43:48.049Z,35.53
2023-03-06T09:46:24.035Z,35.70
2023-03-06T09:49:10.374Z,35.58
2023-03-06T09:51:51.634Z,35.65
2023-03-06T09:54:27.913Z,35.31
2023-03-06T09:56:56.282Z,35.66
2023-03-06T09:59:26.548Z,35.57
2023-03-06T10:02:01.314Z,35.85
2023-03-06T10:04:39.922Z,35.83
2023-03-06T10:07:16.644Z,35.67
2023-03-06T10:09:49.619Z,35.69
2023-03-06T10:12:24.758Z,35.74
2023-03-06T10:15:03.653Z,35.71
2023-03-06T10:17:36.543Z,35.84
2023-03-06T10:20:18.711Z,35.83
2023-03-06T10:23:03.028Z,35.74
2023-03-06T10:25:37.886Z,35.92
2023-03-06T10:28:15.705Z,35.83
2023-03-06T10:30:52.602Z,36.02
2023-03-06T10:33:34.440Z,35.95
2023-03-06T10:36:04.802Z,35.96
2023-03-06T10:38:37.767Z,35.88
2023-03-06T10:41:17.578Z,35.96
2023-03-06T10:44:07.986Z,36.06
2023-03-06T10:46:38.361Z,36.09
2023-03-06T10:49:23.270Z,35.84
2023-03-06T10:51:59.501Z,36.05
2023-03-06T10:54:28.330Z,36.12
2023-03-06T10:56:56.445Z,36.11
2023-03-06T10:59:28.330Z,36.16
2023-03-06T11:01:58.150Z,36.22
2023-03-06T11:04:28.689Z,36.32
2023-03-06T11:07:13.894Z,36.29
2023-03-06T11:09:42.858Z,36.34
2023-03-06T11:12:26.932Z,36.15
2023-03-06T11:15:18.642Z,36.30
2023-03-06T11:17:56.082Z,36.29
2023-03-06T11:20:26.822Z,36.31
2023-03-06T11:23:00.739Z,36.47
2023-03-06T11:25:34.420Z,36.39
2023-03-06T11:28:06.408Z,36.30
2023-03-06T11:30:40.438Z,36.47
2023-03-06T11:33:19.989Z,36.42
2023-03-06T11:35:57.212Z,36.23
2023-03-06T11:38:36.809Z,36.38
2023-03-06T11:41:14.061Z,36.27
2023-03-06T11:43:53.964Z,36.34
2023-03-06T11:46:27.457Z,36.19
2023-03-06T11:49:06.405Z,36.37
2023-03-06T11:51:39.371Z,36.49
2023-03-06T11:54:13.595Z,36.61
2023-03-06T11:56:51.609Z,36.46
2023-03-06T11:59:55.386Z,36.47
2023-03-06T12:02:40.369Z,36.38
2023-03-06T12:05:27.847Z,36.54
2023-03-06T12:08:04.371Z,36.53
2023-03-06T12:10:41.018Z,36.49
2023-03-06T12:16:50.730Z,36.55
2023-03-06T12:19:31.219Z,36.56
2023-03-06T12:22:14.052Z,36.61
2023-03-06T12:25:11.580Z,36.52
2023-03-06T12:27:49.422Z,36.58
2023-03-06T12:30:40.218Z,36.57
2023-03-06T12:33:19.849Z,36.72
2023-03-06T12:36:18.661Z,36.62
2023-03-06T12:39:00.727Z,36.54
2023-03-06T12:41:44.708Z,36.63
2023-03-06T12:44:27.389Z,36.69
2023-03-06T12:47:00.418Z,36.78
2023-03-06T12:49:33.191Z,36.67
2023-03-06T12:52:02.343Z,36.80
2023-03-06T12:54:34.708Z,36.63
2023-03-06T12:57:03.508Z,36.74
2023-03-06T12:59:44.494Z,36.75
2023-03-06T13:02:52.624Z,36.87
2023-03-06T13:05:39.161Z,36.83
2023-03-06T13:08:29.232Z,36.94
2023-03-06T13:11:23.298Z,36.84
2023-03-06T13:13:51.879Z,36.83
2023-03-06T13:16:28.740Z,36.91
2023-03-06T13:19:04.275Z,36.84
2023-03-06T13:22:03.122Z,37.03
2023-03-06T13:24:34.212Z,37.05
2023-03-06T13:27:16.212Z,36.99
2023-03-06T13:30:06.291Z,36.98
2023-03-06T13:32:37.004Z,37.16
2023-03-06T13:35:47.348Z,37.05
2023-03-06T13:38:35.233Z,37.13
2023-03-06T13:41:44.321Z,37.11
2023-03-06T13:44:46.020Z,37.06
2023-03-06T13:47:30.954Z,37.21
2023-03-06T13:50:00.340Z,37.11
2023-03-06T13:52:40.857Z,37.09
2023-03-06T13:55:26.541Z,37.04
2023-03-06T13:58:09.463Z,37.16
2023-03-06T14:01:28.995Z,37.04
2023-03-06T14:04:19.652Z,37.23
2023-03-06T14:07:05.635Z,37.20
2023-03-06T14:09:37.099Z,37.24
2023-03-06T14:12:16.636Z,37.36
2023-03-06T14:14:49.001Z,37.23
2023-03-06T14:17:26.411Z,37.21
2023-03-06T14:19:55.019Z,37.21
2023-03-06T14:22:25.929Z,37.25
2023-03-06T14:25:01.850Z,37.29
2023-03-06T14:27:43.942Z,37.38
2023-03-06T14:30:15.250Z,37.37
2023-03-06T14:32:43.810Z,37.50
2023-03-06T14:35:34.446Z,37.28
2023-03-06T14:38:06.191Z,37.39
2023-03-06T14:40:37.314Z,37.52
2023-03-06T14:43:17.729Z,37.33
2023-03-06T14:45:53.636Z,37.45
2023-03-06T14:48:22.000Z,37.32
2023-03-06T14:50:53.560Z,37.43
2023-03-06T14:53:26.064Z,37.58
2023-03-06T14:56:00.420Z,37.56
2023-03-06T14:58:34.490Z,37.47
2023-03-06T15:01:06.063Z,37.56
2023-03-06T15:03:44.993Z,37.61
2023-03-06T15:06:19.137Z,37.62
2023-03-06T15:08:50.452Z,37.58
2023-03-06T15:11:18.592Z,37.63
2023-03-06T15:14:01.757Z,37.53
2023-03-06T15:16:31.386Z,37.48
2023-03-06T15:19:01.728Z,37.62
2023-03-06T15:21:36.067Z,37.53
2023-03-06T15:24:31.667Z,37.63
2023-03-06T15:27:02.654Z,37.67
2023-03-06T15:29:32.520Z,37.66
2023-03-06T15:32:34.898Z,37.75
2023-03-06T15:35:32.769Z,37.57
2023-03-06T15:38:02.636Z,37.68
2023-03-06T15:40:32.113Z,37.56
2023-03-06T15:43:00.495Z,37.77
2023-03-06T15:45:31.998Z,37.59
2023-03-06T15:48:00.570Z,37.69
2023-03-06T15:50:30.914Z,37.58
2023-03-06T15:52:58.985Z,37.86
2023-03-06T15:55:27.380Z,37.78
2023-03-06T15:57:59.859Z,37.80
2023-03-06T16:00:33.762Z,37.79
2023-03-06T16:03:03.569Z,37.73
2023-03-06T16:05:32.092Z,37.82
2023-03-06T16:08:00.319Z,37.78
2023-03-06T16:10:30.967Z,37.62
2023-03-06T16:13:03.634Z,37.72
2023-03-06T16:15:39.009Z,37.89
2023-03-06T16:18:07.506Z,37.89
2023-03-06T16:20:35.781Z,37.67
2023-03-06T16:23:10.420Z,37.89
2023-03-06T16:25:39.955Z,37.69
2023-03-06T16:28:12.813Z,37.68
2023-03-06T16:30:43.047Z,37.76
2023-03-06T16:33:14.231Z,37.86
2023-03-06T16:35:44.476Z,37.80
2023-03-06T16:38:12.633Z,37.77
2023-03-06T16:40:42.522Z,37.79
2023-03-06T16:43:13.505Z,37.74
2023-03-06T16:45:43.787Z,37.96
2023-03-06T16:48:15.890Z,37.91
2023-03-06T16:50:44.006Z,37.91
2023-03-06T16:53:12.162Z,37.96
2023-03-06T16:55:40.537Z,37.89
2023-03-06T16:58:10.032Z,37.94
2023-03-06T17:00:38.171Z,38.01
2023-03-06T17:03:07.942Z,37.83
2023-03-06T17:05:38.049Z,37.99
2023-03-06T17:08:06.323Z,37.99
2023-03-06T17:10:34.589Z,38.17
2023-03-06T17:13:02.874Z,38.06
2023-03-06T17:15:31.340Z,38.14
2023-03-06T17:17:59.617Z,38.32
2023-03-06T17:20:29.302Z,38.07
2023-03-06T17:22:57.445Z,38.19
2023-03-06T17:25:25.633Z,37.98
2023-03-06T17:27:53.849Z,38.01
2023-03-06T17:30:22.197Z,37.82
2023-03-06T17:32:50.384Z,37.76
2023-03-06T17:35:18.802Z,37.65
2023-03-06T17:37:48.515Z,37.58
2023-03-06T17:40:19.716Z,37.48
2023-03-06T17:42:48.102Z,37.44
2023-03-06T17:45:16.300Z,37.41
2023-03-06T17:47:44.678Z,37.30
2023-03-06T17:50:13.180Z,37.29
2023-03-06T17:52:41.491Z,37.11
2023-03-06T17:55:11.704Z,37.12
2023-03-06T17:57:39.909Z,37.03
2023-03-06T18:00:09.475Z,36.95
2023-03-06T18:02:37.699Z,36.93
2023-03-06T18:05:06.526Z,36.82
2023-03-06T18:07:34.770Z,36.70
2023-03-06T18:10:03.054Z,36.61
2023-03-06T18:12:32.935Z,36.70
2023-03-06T18:15:01.073Z,36.70
2023-03-06T18:17:29.160Z,36.67
2023-03-06T18:19:57.889Z,36.69
2023-03-06T18:22:26.218Z,36.68
2023-03-06T18:24:54.379Z,36.76
2023-03-06T18:27:22.620Z,36.48
2023-03-06T18:29:52.956Z,36.64
2023-03-06T18:32:21.021Z,36.45
2023-03-06T18:34:50.638Z,36.37
2023-03-06T18:37:19.345Z,36.52
2023-03-06T18:39:47.960Z,36.40
2023-03-06T18:42:16.283Z,36.22
2023-03-06T18:44:47.737Z,36.24
2023-03-06T18:47:17.240Z,36.20
2023-03-06T18:49:46.295Z,36.21
2023-03-06T18:52:15.564Z,36.22
2023-03-06T18:54:43.900Z,36.11
2023-03-06T18:57:12.326Z,35.96
2023-03-06T18:59:40.695Z,35.96
2023-03-06T19:02:09.117Z,35.84
2023-03-06T19:04:38.900Z,35.75
2023-03-06T19:07:07.128Z,35.79
2023-03-06T19:09:35.315Z,35.86
2023-03-06T19:12:04.263Z,35.67
2023-03-06T19:14:32.421Z,35.79
2023-03-06T19:17:00.486Z,35.76
2023-03-06T19:19:29.357Z,35.73
2023-03-06T19:22:00.301Z,35.96
2023-03-06T19:24:29.009Z,35.68
2023-03-06T19:26:57.081Z,35.78
2023-03-06T19:29:25.285Z,35.72
2023-03-06T19:31:53.472Z,35.73
2023-03-06T19:34:21.566Z,35.85
2023-03-06T19:36:51.208Z,36.06
2023-03-06T19:39:20.693Z,35.73
2023-03-06T19:41:48.913Z,35.54
2023-03-06T19:44:17.459Z,35.61
2023-03-06T19:46:45.609Z,35.73
2023-03-06T19:49:22.175Z,35.71
2023-03-06T19:51:50.455Z,35.55
2023-03-06T19:54:23.399Z,35.54
2023-03-06T19:56:51.672Z,35.32
2023-03-06T19:59:19.928Z,35.27
2023-03-06T20:01:48.001Z,35.20
2023-03-06T20:04:17.050Z,35.09
2023-03-06T20:06:46.728Z,35.46
2023-03-06T20:09:15.087Z,35.12
2023-03-06T20:11:44.567Z,35.03
2023-03-06T20:14:14.643Z,35.48
2023-03-06T20:16:42.696Z,35.33
2023-03-06T20:19:12.439Z,35.38
2023-03-06T20:21:40.713Z,35.40
2023-03-06T20:24:10.397Z,35.46
2023-03-06T20:26:38.761Z,35.01
2023-03-06T20:29:08.345Z,35.11
2023-03-06T20:31:36.717Z,35.34
2023-03-06T20:34:05.160Z,35.17
2023-03-06T20:36:36.044Z,35.14
2023-03-06T20:39:06.982Z,35.27
2023-03-06T20:41:35.084Z,35.00
2023-03-06T20:44:05.027Z,34.91
2023-03-06T20:46:35.427Z,35.20
2023-03-06T20:49:04.871Z,34.97
2023-03-06T20:51:36.211Z,34.84
2023-03-06T20:54:04.668Z,34.94
2023-03-06T20:56:34.901Z,34.77
2023-03-06T20:59:04.117Z,34.94
2023-03-06T21:01:35.465Z,34.91
2023-03-06T21:04:04.524Z,35.00
2023-03-06T21:06:33.901Z,34.63
2023-03-06T21:09:07.897Z,35.01
2023-03-06T21:11:36.665Z,34.69
2023-03-06T21:14:04.877Z,34.94
2023-03-06T21:16:34.611Z,34.84
2023-03-06T21:19:03.251Z,34.79
2023-03-06T21:21:34.133Z,34.99
2023-03-06T21:24:03.269Z,34.84
2023-03-06T21:26:34.741Z,34.87
2023-03-06T21:29:04.327Z,35.19
2023-03-06T21:31:34.553Z,35.30
2023-03-06T21:34:05.047Z,35.01
2023-03-06T21:36:33.856Z,35.26
2023-03-06T21:39:03.766Z,35.27
2023-03-06T21:41:32.344Z,35.32
2023-03-06T21:44:02.087Z,35.39
2023-03-06T21:46:30.639Z,35.26
2023-03-06T21:49:00.108Z,35.53
2023-03-06T21:51:29.101Z,35.48
2023-03-06T21:53:57.251Z,35.66
2023-03-06T21:56:28.393Z,35.48
2023-03-06T21:58:58.229Z,35.46
2023-03-06T22:01:28.421Z,35.58
2023-03-06T22:03:57.027Z,35.71
2023-03-06T22:06:28.317Z,35.65
2023-03-06T22:08:58.195Z,35.70
2023-03-06T22:11:28.228Z,35.45
2023-03-06T22:13:56.258Z,35.62
2023-03-06T22:16:24.677Z,35.49
2023-03-06T22:18:53.022Z,35.49
2023-03-06T22:21:24.551Z,35.43
2023-03-06T22:23:57.253Z,35.52
2023-03-06T22:26:25.460Z,35.46
2023-03-06T22:28:54.047Z,35.47
2023-03-06T22:31:24.163Z,35.55
2023-03-06T22:33:53.347Z,35.56
2023-03-06T22:36:22.177Z,35.61
2023-03-06T22:38:54.164Z,35.70
2023-03-06T22:41:25.868Z,35.75
2023-03-06T22:43:56.648Z,35.87
2023-03-06T22:46:25.316Z,35.74
2023-03-06T22:48:53.575Z,35.88
2023-03-06T22:51:22.380Z,35.87
2023-03-06T22:53:50.815Z,35.86
2023-03-06T22:56:20.823Z,35.96
2023-03-06T22:58:50.582Z,36.04
2023-03-06T23:01:20.753Z,35.88
2023-03-06T23:03:50.496Z,35.97
2023-03-06T23:06:20.488Z,35.95
2023-03-06T23:08:51.719Z,36.02
2023-03-06T23:11:21.302Z,36.05
2023-03-06T23:13:54.684Z,36.05
2023-03-06T23:16:24.218Z,36.01
2023-03-06T23:18:53.385Z,36.10
2023-03-06T23:21:22.638Z,36.11
2023-03-06T23:23:52.347Z,36.25
2023-03-06T23:26:23.748Z,36.16
2023-03-06T23:28:54.399Z,36.24
2023-03-06T23:31:27.030Z,36.24
2023-03-06T23:33:57.866Z,36.34
2023-03-06T23:36:25.925Z,36.28
2023-03-06T23:38:54.165Z,36.37
2023-03-06T23:41:23.776Z,36.32
2023-03-06T23:43:55.155Z,36.35
2023-03-06T23:46:23.807Z,36.44
2023-03-06T23:48:52.700Z,36.48
2023-03-06T23:51:23.084Z,36.54
2023-03-06T23:53:58.593Z,36.56
2023-03-06T23:56:28.342Z,36.50
2023-03-06T23:58:58.215Z,36.47
